createdAt,value
2022-11-12T00:05:41.667Z,102266.69
2022-11-12T00:08:08.431Z,102272.09
2022-11-12T00:10:35.234Z,102268.63
2022-11-12T00:13:03.102Z,102267.78
2022-11-12T00:15:30.018Z,102281.41
2022-11-12T00:17:58.398Z,102277.34
2022-11-12T00:20:25.705Z,102273.66
2022-11-12T00:57:53.339Z,102284.16
2022-11-12T01:00:21.648Z,102278.44
2022-11-12T01:24:27.540Z,102275.38
2022-11-12T01:26:54.179Z,102262.97
2022-11-12T01:29:22.048Z,102268.13
2022-11-12T01:31:48.717Z,102267.28
2022-11-12T01:34:15.377Z,102287.91
2022-11-12T01:36:43.518Z,102278.16
2022-11-12T01:39:11.691Z,102278.06
2022-11-12T01:41:41.696Z,102275.47
2022-11-12T01:44:26.964Z,102276.56
2022-11-12T01:47:31.562Z,102265.16
2022-11-12T01:50:25.317Z,102272.38
2022-11-12T01:53:13.749Z,102284.03
2022-11-12T01:55:41.188Z,102281.34
2022-11-12T01:58:18.741Z,102287.84
2022-11-12T02:00:48.087Z,102284.16
2022-11-12T02:03:25.222Z,102286.84
2022-11-12T02:06:07.566Z,102277.03
2022-11-12T02:08:37.254Z,102270.75
2022-11-12T02:11:21.852Z,102269.16
2022-11-12T02:13:59.258Z,102285.13
2022-11-12T02:16:37.509Z,102273.59
2022-11-12T02:19:10.458Z,102278.09
2022-11-12T02:21:37.727Z,102278.25
2022-11-12T02:24:27.351Z,102275.41
2022-11-12T02:26:56.024Z,102290.88
2022-11-12T02:29:23.356Z,102291.06
2022-11-12T02:31:50.082Z,102277.50
2022-11-12T02:34:16.761Z,102296.47
2022-11-12T02:36:43.450Z,102289.97
2022-11-12T02:39:10.080Z,102289.97
2022-11-12T02:41:36.671Z,102285.34
2022-11-12T02:44:03.477Z,102292.47
2022-11-12T02:46:30.088Z,102299.06
2022-11-12T02:48:56.859Z,102303.38
2022-11-12T02:51:23.698Z,102316.00
2022-11-12T02:53:50.369Z,102303.47
2022-11-12T02:56:17.161Z,102313.41
2022-11-12T02:58:43.839Z,102312.75
2022-11-12T03:01:10.533Z,102312.75
2022-11-12T03:03:37.230Z,102309.97
2022-11-12T03:06:04.162Z,102309.00
2022-11-12T03:08:30.920Z,102309.09
2022-11-12T03:10:57.567Z,102307.50
2022-11-12T03:13:24.316Z,102311.06
2022-11-12T03:15:58.229Z,102307.50
2022-11-12T03:18:25.208Z,102311.81
2022-11-12T03:20:52.937Z,102306.41
2022-11-12T03:23:22.326Z,102316.69
2022-11-12T03:25:49.095Z,102312.13
2022-11-12T03:28:17.121Z,102306.00
2022-11-12T03:30:45.038Z,102308.78
2022-11-12T03:33:15.136Z,102310.75
2022-11-12T03:35:44.990Z,102314.44
2022-11-12T03:38:11.693Z,102319.06
2022-11-12T03:40:38.311Z,102300.84
2022-11-12T03:43:04.984Z,102312.47
2022-11-12T03:45:31.668Z,102324.03
2022-11-12T03:47:59.006Z,102306.09
2022-11-12T03:50:29.761Z,102299.75
2022-11-12T03:53:00.105Z,102315.19
2022-11-12T03:55:30.518Z,102313.34
2022-11-12T03:57:58.762Z,102314.19
2022-11-12T04:00:29.013Z,102305.25
2022-11-12T04:02:57.589Z,102318.38
2022-11-12T04:05:45.127Z,102322.81
2022-11-12T04:08:36.074Z,102333.50
2022-11-12T04:11:17.065Z,102322.81
2022-11-12T04:13:49.243Z,102337.03
2022-11-12T04:16:40.006Z,102332.41
2022-11-12T04:19:31.712Z,102333.28
2022-11-12T04:22:07.647Z,102318.91
2022-11-12T04:24:58.441Z,102327.00
2022-11-12T04:27:31.019Z,102346.78
2022-11-12T04:30:18.623Z,102340.50
2022-11-12T04:32:55.503Z,102335.84
2022-11-12T04:35:26.365Z,102353.03
2022-11-12T04:37:53.135Z,102351.41
2022-11-12T04:40:43.983Z,102352.16
2022-11-12T04:43:33.890Z,102355.81
2022-11-12T04:46:04.278Z,102358.53
2022-11-12T04:48:31.408Z,102368.34
2022-11-12T04:51:02.557Z,102362.06
2022-11-12T04:53:31.453Z,102355.81
2022-11-12T04:55:59.905Z,102364.00
2022-11-12T04:58:26.918Z,102370.41
2022-11-12T05:00:53.909Z,102385.59
2022-11-12T05:03:21.161Z,102367.69
2022-11-12T05:05:47.842Z,102352.50
2022-11-12T05:08:14.544Z,102368.78
2022-11-12T05:10:41.335Z,102380.19
2022-11-12T05:13:08.048Z,102375.88
2022-11-12T05:15:34.679Z,102380.53
2022-11-12T05:18:01.330Z,102364.59
2022-11-12T05:20:28.042Z,102365.44
2022-11-12T05:23:06.073Z,102357.34
2022-11-12T05:25:36.021Z,102371.81
2022-11-12T05:28:03.143Z,102371.81
2022-11-12T05:30:29.979Z,102360.19
2022-11-12T05:32:56.707Z,102348.50
2022-11-12T05:35:23.423Z,102364.47
2022-11-12T05:37:50.084Z,102355.72
2022-11-12T05:40:16.813Z,102367.50
2022-11-12T05:42:45.400Z,102354.13
2022-11-12T05:45:12.023Z,102354.13
2022-11-12T05:47:38.622Z,102367.50
2022-11-12T05:50:06.263Z,102379.25
2022-11-12T06:19:29.719Z,102376.69
2022-11-12T06:32:49.730Z,102378.97
2022-11-12T08:12:33.379Z,102461.25
2022-11-12T08:36:40.340Z,102486.28
2022-11-12T08:39:08.587Z,102472.88
2022-11-12T09:38:40.642Z,102515.47
2022-11-12T09:56:21.596Z,102518.13
2022-11-12T10:19:34.338Z,102556.63
2022-11-12T10:37:24.983Z,102555.38
2022-11-12T10:39:52.849Z,102568.53
2022-11-12T10:50:52.074Z,102568.59
2022-11-12T11:02:19.208Z,102544.44
2022-11-12T11:04:46.881Z,102544.28
2022-11-12T11:16:23.311Z,102547.13
2022-11-12T12:55:58.270Z,102522.28
2022-11-12T13:43:52.185Z,102512.88
2022-11-12T13:46:34.312Z,102514.53
2022-11-12T13:49:10.284Z,102511.19
2022-11-12T13:51:46.647Z,102506.81
2022-11-12T13:54:37.661Z,102498.84
2022-11-12T13:57:30.019Z,102498.22
2022-11-12T14:00:18.806Z,102500.94
2022-11-12T14:03:02.226Z,102505.09
2022-11-12T14:05:34.662Z,102493.28
2022-11-12T14:08:41.970Z,102497.19
2022-11-12T14:12:09.808Z,102493.00
2022-11-12T14:15:41.345Z,102483.59
2022-11-12T14:19:20.181Z,102483.59
2022-11-12T14:22:02.469Z,102488.63
2022-11-12T14:24:32.806Z,102491.47
2022-11-12T14:26:59.658Z,102472.91
2022-11-12T14:29:34.123Z,102477.63
2022-11-12T14:32:03.464Z,102478.06
2022-11-12T14:34:34.834Z,102479.22
2022-11-12T14:37:02.206Z,102481.38
2022-11-12T14:39:30.842Z,102476.31
2022-11-12T14:42:00.572Z,102476.84
2022-11-12T14:44:38.070Z,102474.47
2022-11-12T14:47:08.426Z,102472.28
2022-11-12T14:49:49.043Z,102462.97
2022-11-12T14:52:26.217Z,102466.88
2022-11-12T14:55:06.031Z,102464.50
2022-11-12T14:57:33.321Z,102472.13
2022-11-12T14:59:59.987Z,102479.31
2022-11-12T15:02:47.212Z,102483.06
2022-11-12T15:05:23.512Z,102475.41
2022-11-12T15:08:11.309Z,102473.88
2022-11-12T15:10:44.831Z,102480.53
2022-11-12T15:13:40.195Z,102466.91
2022-11-12T15:16:10.775Z,102469.81
2022-11-12T15:18:40.414Z,102469.03
2022-11-12T15:21:27.064Z,102475.88
2022-11-12T15:24:26.846Z,102473.88
2022-11-12T15:26:57.168Z,102476.34
2022-11-12T15:29:35.986Z,102477.72
2022-11-12T15:32:13.902Z,102471.09
2022-11-12T15:34:40.782Z,102474.44
2022-11-12T15:37:19.710Z,102476.75
2022-11-12T15:39:57.257Z,102472.53
2022-11-12T15:42:42.449Z,102465.91
2022-11-12T15:45:21.589Z,102463.78
2022-11-12T15:47:48.662Z,102467.81
2022-11-12T15:50:23.363Z,102467.59
2022-11-12T15:52:50.978Z,102470.72
2022-11-12T15:55:18.923Z,102464.47
2022-11-12T15:57:52.899Z,102459.72
2022-11-12T16:00:26.198Z,102457.88
2022-11-12T16:03:03.967Z,102463.84
2022-11-12T16:05:31.747Z,102476.78
2022-11-12T16:08:00.549Z,102471.66
2022-11-12T16:10:27.309Z,102474.97
2022-11-12T16:13:02.898Z,102469.34
2022-11-12T16:15:30.879Z,102479.81
2022-11-12T16:17:59.001Z,102478.97
2022-11-12T16:20:35.390Z,102480.78
2022-11-12T16:23:02.426Z,102482.59
2022-11-12T16:25:34.364Z,102480.91
2022-11-12T16:28:01.983Z,102474.72
2022-11-12T16:30:33.028Z,102478.13
2022-11-12T16:33:01.824Z,102481.34
2022-11-12T16:35:34.827Z,102476.41
2022-11-12T16:38:01.687Z,102475.63
2022-11-12T16:40:32.368Z,102477.44
2022-11-12T16:42:59.032Z,102476.59
2022-11-12T16:45:39.606Z,102480.97
2022-11-12T16:48:20.085Z,102469.59
2022-11-12T16:50:48.945Z,102474.84
2022-11-12T16:53:15.862Z,102486.66
2022-11-12T16:55:42.981Z,102484.22
2022-11-12T16:58:21.660Z,102487.97
2022-11-12T17:00:50.619Z,102485.44
2022-11-12T17:03:17.509Z,102494.19
2022-11-12T17:05:53.717Z,102487.03
2022-11-12T17:08:20.497Z,102482.88
2022-11-12T17:10:47.381Z,102477.00
2022-11-12T17:13:15.632Z,102480.34
2022-11-12T17:15:42.270Z,102484.44
2022-11-12T17:18:10.304Z,102476.59
2022-11-12T17:20:37.043Z,102481.69
2022-11-12T17:23:03.760Z,102481.69
2022-11-12T17:25:30.447Z,102484.81
2022-11-12T17:27:57.137Z,102479.63
2022-11-12T17:30:23.837Z,102476.78
2022-11-12T17:32:50.483Z,102474.03
2022-11-12T17:35:22.744Z,102469.47
2022-11-12T17:37:51.220Z,102474.03
2022-11-12T17:40:18.127Z,102466.63
2022-11-12T17:42:44.784Z,102467.25
2022-11-12T17:45:11.732Z,102462.94
2022-11-12T17:47:40.611Z,102464.34
2022-11-12T17:50:14.017Z,102457.56
2022-11-12T17:52:40.657Z,102460.47
2022-11-12T17:55:08.161Z,102456.00
2022-11-12T17:57:34.866Z,102446.94
2022-11-12T18:00:01.488Z,102460.63
2022-11-12T18:02:28.528Z,102448.78
2022-11-12T18:04:55.135Z,102447.78
2022-11-12T18:07:21.787Z,102442.88
2022-11-12T18:09:48.434Z,102438.88
2022-11-12T18:12:15.396Z,102438.88
2022-11-12T18:14:41.978Z,102426.81
2022-11-12T18:17:08.610Z,102428.53
2022-11-12T18:19:35.232Z,102427.84
2022-11-12T18:22:02.413Z,102422.59
2022-11-12T18:24:31.868Z,102430.25
2022-11-12T18:27:01.480Z,102422.44
2022-11-12T18:29:28.091Z,102421.50
2022-11-12T18:31:57.989Z,102418.03
2022-11-12T18:34:24.669Z,102416.19
2022-11-12T18:36:51.330Z,102426.94
2022-11-12T18:39:17.993Z,102423.31
2022-11-12T18:41:44.604Z,102422.84
2022-11-12T18:44:11.349Z,102422.91
2022-11-12T18:46:37.957Z,102422.06
2022-11-12T18:49:04.650Z,102426.38
2022-11-12T18:51:31.344Z,102418.91
2022-11-12T18:53:57.957Z,102427.28
2022-11-12T18:56:24.612Z,102431.63
2022-11-12T18:58:51.283Z,102430.97
2022-11-12T19:04:06.128Z,102431.94
2022-11-12T19:06:33.026Z,102422.41
2022-11-12T19:09:01.021Z,102425.34
2022-11-12T19:11:28.155Z,102418.97
2022-11-12T19:13:56.047Z,102417.06
2022-11-12T19:16:23.654Z,102414.31
2022-11-12T19:18:52.745Z,102420.25
2022-11-12T19:29:30.859Z,102403.03
2022-11-12T19:42:40.544Z,102397.34
2022-11-12T19:45:07.999Z,102393.44
2022-11-12T19:47:35.021Z,102393.44
2022-11-12T21:45:57.825Z,102358.63
2022-11-12T21:48:24.996Z,102359.56
2022-11-12T21:50:51.946Z,102360.03
2022-11-12T21:53:18.770Z,102364.38
2022-11-12T21:55:48.392Z,102362.78
2022-11-12T21:58:15.214Z,102369.09
2022-11-12T22:00:42.880Z,102367.91
2022-11-12T22:03:19.804Z,102371.94
2022-11-12T22:30:12.873Z,102373.72
2022-11-12T23:13:13.537Z,102361.16
2022-11-12T23:15:44.302Z,102366.50
2022-11-12T23:18:10.939Z,102363.41
2022-11-12T23:20:37.968Z,102356.88
2022-11-12T23:23:04.664Z,102361.59
2022-11-12T23:25:34.054Z,102363.25
2022-11-12T23:28:00.753Z,102367.66
2022-11-12T23:30:27.639Z,102371.03
2022-11-12T23:32:54.350Z,102368.44
2022-11-12T23:35:20.970Z,102365.69
2022-11-12T23:37:47.604Z,102374.44
2022-11-12T23:40:14.930Z,102383.63
2022-11-12T23:42:41.558Z,102379.69
2022-11-12T23:45:11.578Z,102375.84
2022-11-12T23:47:38.287Z,102380.53
2022-11-12T23:50:05.947Z,102382.13
2022-11-12T23:52:32.576Z,102366.31
2022-11-12T23:54:59.321Z,102373.03
2022-11-12T23:57:26.019Z,102367.06
2022-11-12T23:59:52.635Z,102354.31
